createdAt,value
2022-12-18T00:00:32.512Z,15.70
2022-12-18T00:03:05.474Z,15.40
2022-12-18T00:05:38.620Z,14.37
2022-12-18T00:08:13.116Z,13.37
2022-12-18T00:10:46.440Z,13.37
2022-12-18T00:13:19.592Z,14.73
2022-12-18T00:15:52.516Z,12.83
2022-12-18T00:18:37.345Z,13.37
2022-12-18T00:21:14.418Z,13.73
2022-12-18T00:23:49.302Z,15.50
2022-12-18T00:26:23.737Z,14.83
2022-12-18T00:28:57.683Z,14.67
2022-12-18T00:31:30.737Z,16.50
2022-12-18T00:34:03.851Z,16.23
2022-12-18T00:36:37.149Z,15.23
2022-12-18T00:39:12.814Z,17.03
2022-12-18T00:42:03.032Z,16.90
2022-12-18T00:44:37.114Z,15.10
2022-12-18T00:47:09.901Z,15.90
2022-12-18T00:49:42.744Z,15.70
2022-12-18T00:52:15.868Z,15.37
2022-12-18T00:54:50.158Z,15.93
2022-12-18T00:57:22.873Z,16.50
2022-12-18T00:59:55.848Z,15.40
2022-12-18T01:02:28.740Z,16.83
2022-12-18T01:05:01.967Z,16.40
2022-12-18T01:07:37.451Z,17.63
2022-12-18T01:10:13.573Z,15.87
2022-12-18T01:12:46.448Z,16.17
2022-12-18T01:15:20.944Z,16.90
2022-12-18T01:17:54.283Z,17.90
2022-12-18T01:20:27.670Z,16.53
2022-12-18T01:23:00.515Z,16.77
2022-12-18T01:25:34.736Z,16.07
2022-12-18T01:28:07.438Z,15.23
2022-12-18T01:30:42.276Z,15.27
2022-12-18T01:33:14.969Z,15.93
2022-12-18T01:35:49.592Z,15.70
2022-12-18T01:38:22.613Z,14.97
2022-12-18T01:41:00.345Z,15.97
2022-12-18T01:44:02.511Z,15.37
2022-12-18T01:46:35.283Z,15.10
2022-12-18T01:49:07.931Z,16.43
2022-12-18T01:51:40.650Z,16.77
2022-12-18T01:54:13.597Z,14.87
2022-12-18T01:56:47.848Z,16.23
2022-12-18T01:59:20.912Z,15.57
2022-12-18T02:01:53.966Z,15.87
2022-12-18T02:04:27.858Z,16.47
2022-12-18T02:07:05.703Z,15.50
2022-12-18T02:09:40.458Z,16.03
2022-12-18T02:12:18.499Z,15.57
2022-12-18T02:14:57.120Z,16.07
2022-12-18T02:17:33.725Z,15.33
2022-12-18T02:20:10.321Z,15.67
2022-12-18T02:22:51.806Z,16.63
2022-12-18T02:25:31.433Z,15.73
2022-12-18T02:28:10.560Z,16.80
2022-12-18T02:30:44.697Z,14.70
2022-12-18T02:33:17.796Z,16.07
2022-12-18T02:35:50.968Z,15.83
2022-12-18T02:38:24.934Z,15.23
2022-12-18T02:40:59.281Z,16.60
2022-12-18T02:43:42.445Z,16.77
2022-12-18T02:46:26.318Z,15.47
2022-12-18T02:49:05.708Z,17.10
2022-12-18T02:51:41.808Z,16.50
2022-12-18T02:54:22.731Z,17.27
2022-12-18T02:56:57.033Z,16.47
2022-12-18T02:59:39.010Z,17.07
2022-12-18T03:02:18.904Z,19.10
2022-12-18T03:04:55.429Z,17.10
2022-12-18T03:07:35.191Z,18.07
2022-12-18T03:10:09.652Z,19.47
2022-12-18T03:12:44.833Z,19.67
2022-12-18T03:15:21.556Z,19.63
2022-12-18T03:17:56.984Z,18.37
2022-12-18T03:20:34.713Z,18.30
2022-12-18T03:23:10.369Z,19.00
2022-12-18T03:25:44.611Z,20.77
2022-12-18T03:28:19.834Z,20.47
2022-12-18T03:30:55.145Z,20.43
2022-12-18T03:33:29.577Z,19.93
2022-12-18T03:36:03.009Z,20.03
2022-12-18T03:38:35.995Z,21.47
2022-12-18T03:41:13.423Z,20.83
2022-12-18T03:43:51.192Z,22.27
2022-12-18T03:46:28.841Z,21.93
2022-12-18T03:49:03.671Z,22.10
2022-12-18T03:51:40.880Z,22.43
2022-12-18T03:54:13.903Z,23.03
2022-12-18T03:56:49.032Z,22.27
2022-12-18T03:59:22.189Z,21.57
2022-12-18T04:01:58.935Z,23.87
2022-12-18T04:04:35.170Z,25.27
2022-12-18T04:07:11.275Z,23.97
2022-12-18T04:09:45.791Z,25.87
2022-12-18T04:12:21.440Z,23.90
2022-12-18T04:15:01.670Z,21.73
2022-12-18T04:17:35.885Z,23.67
2022-12-18T04:20:09.183Z,23.17
2022-12-18T04:22:42.038Z,20.73
2022-12-18T04:25:16.509Z,21.60
2022-12-18T04:27:49.415Z,20.60
2022-12-18T04:30:22.289Z,20.97
2022-12-18T04:32:56.308Z,22.40
2022-12-18T04:35:31.339Z,20.27
2022-12-18T04:38:04.193Z,19.07
2022-12-18T04:40:37.538Z,19.47
2022-12-18T04:43:10.592Z,18.33
2022-12-18T04:45:43.839Z,18.77
2022-12-18T04:48:17.984Z,18.57
2022-12-18T04:50:50.688Z,17.77
2022-12-18T04:53:23.542Z,17.73
2022-12-18T04:56:04.240Z,17.87
2022-12-18T04:58:37.064Z,18.73
2022-12-18T05:01:10.664Z,17.37
2022-12-18T05:03:45.493Z,16.57
2022-12-18T05:06:18.478Z,17.10
2022-12-18T05:08:51.367Z,17.63
2022-12-18T05:11:24.315Z,16.93
2022-12-18T05:13:58.518Z,16.63
2022-12-18T05:16:31.271Z,16.60
2022-12-18T05:19:09.864Z,18.20
2022-12-18T05:21:42.931Z,17.70
2022-12-18T05:24:15.914Z,16.97
2022-12-18T05:26:48.878Z,17.50
2022-12-18T05:29:21.620Z,16.73
2022-12-18T05:31:54.591Z,16.63
2022-12-18T05:34:28.812Z,16.60
2022-12-18T05:37:01.629Z,16.33
2022-12-18T05:39:34.542Z,16.67
2022-12-18T05:42:07.410Z,16.40
2022-12-18T05:44:40.235Z,17.23
2022-12-18T05:47:12.914Z,14.90
2022-12-18T05:49:47.445Z,16.67
2022-12-18T05:52:20.499Z,15.87
2022-12-18T05:54:55.683Z,16.47
2022-12-18T05:57:28.526Z,15.67
2022-12-18T06:00:03.832Z,16.43
2022-12-18T06:02:36.687Z,17.10
2022-12-18T06:05:13.043Z,15.63
2022-12-18T06:07:48.073Z,16.80
2022-12-18T06:10:20.977Z,16.87
2022-12-18T06:12:54.279Z,16.73
2022-12-18T06:15:27.043Z,17.87
2022-12-18T06:17:59.949Z,14.90
2022-12-18T06:20:34.226Z,17.83
2022-12-18T06:23:07.094Z,16.73
2022-12-18T06:25:40.350Z,15.87
2022-12-18T06:28:13.367Z,16.37
2022-12-18T06:30:49.155Z,16.77
2022-12-18T06:33:21.947Z,17.87
2022-12-18T06:36:01.115Z,15.53
2022-12-18T06:38:40.941Z,17.27
2022-12-18T06:41:14.922Z,17.40
2022-12-18T06:43:47.783Z,16.50
2022-12-18T06:46:23.072Z,18.37
2022-12-18T06:48:58.290Z,16.93
2022-12-18T06:51:32.679Z,18.50
2022-12-18T06:54:05.614Z,18.80
2022-12-18T06:56:39.734Z,18.33
2022-12-18T06:59:12.567Z,17.30
2022-12-18T07:01:45.553Z,18.43
2022-12-18T07:04:18.549Z,17.73
2022-12-18T07:06:52.698Z,18.40
2022-12-18T07:09:25.702Z,16.67
2022-12-18T07:11:59.479Z,18.20
2022-12-18T07:14:34.562Z,19.47
2022-12-18T07:17:07.488Z,17.93
2022-12-18T07:19:41.690Z,17.47
2022-12-18T07:22:15.902Z,18.47
2022-12-18T07:24:51.268Z,19.60
2022-12-18T07:27:24.350Z,17.57
2022-12-18T07:29:57.701Z,19.23
2022-12-18T07:32:32.092Z,16.37
2022-12-18T07:37:55.387Z,19.23
2022-12-18T07:40:28.196Z,19.50
2022-12-18T07:43:01.082Z,18.93
2022-12-18T07:45:33.987Z,18.67
2022-12-18T07:48:07.078Z,19.97
2022-12-18T07:50:39.795Z,18.23
2022-12-18T07:53:13.906Z,17.97
2022-12-18T07:56:25.044Z,18.37
2022-12-18T07:58:41.670Z,17.37
2022-12-18T08:01:14.694Z,17.83
2022-12-18T08:03:47.855Z,18.33
2022-12-18T08:06:23.952Z,17.93
2022-12-18T08:08:58.972Z,19.50
2022-12-18T08:11:31.600Z,18.50
2022-12-18T08:14:04.385Z,18.57
2022-12-18T08:16:38.607Z,20.47
2022-12-18T08:19:11.769Z,19.67
2022-12-18T08:21:44.448Z,17.23
2022-12-18T08:24:18.788Z,17.67
2022-12-18T08:27:13.473Z,17.60
2022-12-18T08:29:46.413Z,17.87
2022-12-18T08:32:19.287Z,18.17
2022-12-18T08:34:52.057Z,17.90
2022-12-18T08:37:24.797Z,18.37
2022-12-18T08:39:59.080Z,19.00
2022-12-18T08:42:49.377Z,17.70
2022-12-18T08:45:22.233Z,17.20
2022-12-18T08:47:55.274Z,16.93
2022-12-18T08:50:30.999Z,18.03
2022-12-18T08:53:03.679Z,15.40
2022-12-18T08:55:37.815Z,16.63
2022-12-18T08:58:10.725Z,16.43
2022-12-18T09:00:43.742Z,17.43
2022-12-18T09:03:17.281Z,16.47
2022-12-18T09:05:50.144Z,18.07
2022-12-18T09:08:24.688Z,16.97
2022-12-18T09:11:00.723Z,17.10
2022-12-18T09:13:33.837Z,17.47
2022-12-18T09:16:06.749Z,16.63
2022-12-18T09:18:39.897Z,16.10
2022-12-18T09:21:13.620Z,17.87
2022-12-18T09:23:50.674Z,15.43
2022-12-18T09:26:25.234Z,15.93
2022-12-18T09:28:58.104Z,16.60
2022-12-18T09:31:30.895Z,16.67
2022-12-18T09:34:08.779Z,16.10
2022-12-18T09:36:41.685Z,16.90
2022-12-18T09:39:14.537Z,16.17
2022-12-18T09:41:51.011Z,15.30
2022-12-18T09:44:26.428Z,16.20
2022-12-18T09:47:03.306Z,17.27
2022-12-18T09:49:38.256Z,17.20
2022-12-18T09:52:13.764Z,15.80
2022-12-18T09:54:48.871Z,17.10
2022-12-18T09:57:24.389Z,17.37
2022-12-18T09:59:59.072Z,15.73
2022-12-18T10:02:33.233Z,17.37
2022-12-18T10:05:11.374Z,17.83
2022-12-18T10:07:50.113Z,18.13
2022-12-18T10:10:32.068Z,15.20
2022-12-18T10:13:11.376Z,16.90
2022-12-18T10:15:52.326Z,16.33
2022-12-18T10:18:30.569Z,14.93
2022-12-18T10:21:05.897Z,16.67
2022-12-18T10:23:46.584Z,16.23
2022-12-18T10:26:24.038Z,17.63
2022-12-18T10:29:05.172Z,18.47
2022-12-18T10:31:38.604Z,17.20
2022-12-18T10:34:11.652Z,16.53
2022-12-18T10:36:45.564Z,16.60
2022-12-18T10:39:19.156Z,17.07
2022-12-18T10:41:52.603Z,16.20
2022-12-18T10:44:43.100Z,16.37
2022-12-18T10:47:19.866Z,17.63
2022-12-18T10:49:56.010Z,18.53
2022-12-18T10:52:29.443Z,17.20
2022-12-18T10:55:04.204Z,17.00
2022-12-18T10:57:38.206Z,16.50
2022-12-18T11:00:29.079Z,16.67
2022-12-18T11:03:02.129Z,17.07
2022-12-18T11:05:37.836Z,18.23
2022-12-18T11:08:22.443Z,17.93
2022-12-18T11:10:55.130Z,18.20
2022-12-18T11:13:29.130Z,17.53
2022-12-18T11:16:03.597Z,17.60
2022-12-18T11:18:37.184Z,18.87
2022-12-18T11:21:11.276Z,19.10
2022-12-18T11:23:48.668Z,17.80
2022-12-18T11:26:22.498Z,17.67
2022-12-18T11:29:11.057Z,18.33
2022-12-18T11:31:45.237Z,17.13
2022-12-18T11:34:30.639Z,19.13
2022-12-18T11:37:05.197Z,17.40
2022-12-18T11:39:39.609Z,17.07
2022-12-18T11:42:14.670Z,17.30
2022-12-18T11:44:50.172Z,17.53
2022-12-18T11:47:30.612Z,18.00
2022-12-18T11:50:04.011Z,16.90
2022-12-18T11:52:39.259Z,16.60
2022-12-18T11:55:13.774Z,17.00
2022-12-18T11:57:52.525Z,15.70
2022-12-18T12:00:27.297Z,17.90
2022-12-18T12:03:10.357Z,15.03
2022-12-18T12:05:54.271Z,15.10
2022-12-18T12:08:37.756Z,16.47
2022-12-18T12:11:16.088Z,17.30
2022-12-18T12:13:52.756Z,15.27
2022-12-18T12:16:30.201Z,15.83
2022-12-18T12:19:09.424Z,15.90
2022-12-18T12:21:43.167Z,16.13
2022-12-18T12:24:26.327Z,15.50
2022-12-18T12:27:04.840Z,17.13
2022-12-18T12:29:52.844Z,16.00
2022-12-18T12:32:29.656Z,17.77
2022-12-18T12:35:10.286Z,15.57
2022-12-18T12:37:50.206Z,15.67
2022-12-18T12:40:51.329Z,16.30
2022-12-18T12:43:30.545Z,16.67
2022-12-18T12:46:05.843Z,16.53
2022-12-18T12:48:43.580Z,15.77
2022-12-18T12:51:23.948Z,15.93
2022-12-18T12:53:58.335Z,16.73
2022-12-18T12:56:37.700Z,17.57
2022-12-18T12:59:15.597Z,16.67
2022-12-18T13:01:54.772Z,15.97
2022-12-18T13:04:32.863Z,17.23
2022-12-18T13:07:08.489Z,17.10
2022-12-18T13:09:56.582Z,15.17
2022-12-18T13:12:47.204Z,16.47
2022-12-18T13:15:23.201Z,16.43
2022-12-18T13:18:08.048Z,16.57
2022-12-18T13:20:42.748Z,16.03
2022-12-18T13:23:30.202Z,16.70
2022-12-18T13:26:20.857Z,17.67
2022-12-18T13:29:00.156Z,16.33
2022-12-18T13:32:10.137Z,17.37
2022-12-18T13:34:42.943Z,18.43
2022-12-18T13:37:34.582Z,17.90
2022-12-18T13:40:22.248Z,16.73
2022-12-18T13:43:19.398Z,16.97
2022-12-18T13:46:03.684Z,16.40
2022-12-18T13:48:40.348Z,16.93
2022-12-18T13:51:21.056Z,16.27
2022-12-18T13:53:56.442Z,16.90
2022-12-18T13:56:29.951Z,17.80
2022-12-18T13:59:22.656Z,16.47
2022-12-18T14:01:59.006Z,17.40
2022-12-18T14:04:32.683Z,16.33
2022-12-18T14:07:07.268Z,17.33
2022-12-18T14:09:43.043Z,15.80
2022-12-18T14:12:35.573Z,16.90
2022-12-18T14:15:17.228Z,17.00
2022-12-18T14:17:51.408Z,16.60
2022-12-18T14:20:27.046Z,18.07
2022-12-18T14:23:01.182Z,18.17
2022-12-18T14:25:37.773Z,17.87
2022-12-18T14:28:17.857Z,18.73
2022-12-18T14:30:52.034Z,20.13
2022-12-18T14:33:26.024Z,19.63
2022-12-18T14:35:59.694Z,18.80
2022-12-18T14:38:32.988Z,19.47
2022-12-18T14:41:06.718Z,17.80
2022-12-18T14:43:40.627Z,18.37
2022-12-18T14:46:28.480Z,19.50
2022-12-18T14:49:04.082Z,16.37
2022-12-18T14:51:38.320Z,17.23
2022-12-18T14:54:17.219Z,18.43
2022-12-18T14:56:50.891Z,17.03
2022-12-18T14:59:25.196Z,16.97
2022-12-18T15:02:04.176Z,14.00
2022-12-18T15:04:41.707Z,15.50
2022-12-18T15:07:18.160Z,15.17
2022-12-18T15:10:03.702Z,15.63
2022-12-18T15:12:37.664Z,15.70
2022-12-18T15:15:25.718Z,16.53
2022-12-18T15:17:59.201Z,16.00
2022-12-18T15:20:34.190Z,15.43
2022-12-18T15:23:07.275Z,16.23
2022-12-18T15:25:40.567Z,15.30
2022-12-18T15:28:20.181Z,15.57
2022-12-18T15:31:07.221Z,15.90
2022-12-18T15:33:42.308Z,16.27
2022-12-18T15:36:19.007Z,16.37
2022-12-18T15:39:05.358Z,14.57
2022-12-18T15:41:39.490Z,17.27
2022-12-18T15:44:23.399Z,15.83
2022-12-18T15:47:00.198Z,17.40
2022-12-18T15:49:32.882Z,16.60
2022-12-18T15:52:09.362Z,17.83
2022-12-18T15:55:03.508Z,16.07
2022-12-18T15:57:38.807Z,18.40
2022-12-18T16:00:14.259Z,15.23
2022-12-18T16:02:47.240Z,16.47
2022-12-18T16:05:21.111Z,17.60
2022-12-18T16:07:55.518Z,16.60
2022-12-18T16:10:28.512Z,15.77
2022-12-18T16:13:02.852Z,16.57
2022-12-18T16:15:40.595Z,14.87
2022-12-18T16:18:20.570Z,15.60
2022-12-18T16:20:53.701Z,15.30
2022-12-18T16:23:30.968Z,15.70
2022-12-18T16:26:05.686Z,16.00
2022-12-18T16:28:40.624Z,17.27
2022-12-18T16:31:16.726Z,16.33
2022-12-18T16:33:52.708Z,15.70
2022-12-18T16:36:26.326Z,18.13
2022-12-18T16:39:00.605Z,15.80
2022-12-18T16:41:34.237Z,15.73
2022-12-18T16:44:07.602Z,16.27
2022-12-18T16:46:43.620Z,17.10
2022-12-18T16:49:19.464Z,16.80
2022-12-18T16:51:54.680Z,16.00
2022-12-18T16:54:30.408Z,16.30
2022-12-18T16:57:03.827Z,17.50
2022-12-18T16:59:37.420Z,17.33
2022-12-18T17:02:15.413Z,17.33
2022-12-18T17:04:49.858Z,15.60
2022-12-18T17:07:36.585Z,15.50
2022-12-18T17:10:15.604Z,15.73
2022-12-18T17:12:56.363Z,18.87
2022-12-18T17:15:32.117Z,16.73
2022-12-18T17:18:05.249Z,16.10
2022-12-18T17:20:41.057Z,16.03
2022-12-18T17:23:22.231Z,16.20
2022-12-18T17:25:58.235Z,16.80
2022-12-18T17:28:33.194Z,18.93
2022-12-18T17:31:13.860Z,18.57
2022-12-18T17:33:49.073Z,18.23
2022-12-18T17:36:23.370Z,18.27
2022-12-18T17:39:03.071Z,16.43
2022-12-18T17:41:53.810Z,17.57
2022-12-18T17:44:49.862Z,17.23
2022-12-18T17:47:32.093Z,17.27
2022-12-18T17:50:07.206Z,17.07
2022-12-18T17:52:40.979Z,17.57
2022-12-18T17:55:14.890Z,18.90
2022-12-18T17:57:50.132Z,18.47
2022-12-18T18:00:26.800Z,17.97
2022-12-18T18:03:02.034Z,16.90
2022-12-18T18:05:34.958Z,17.93
2022-12-18T18:08:10.034Z,17.70
2022-12-18T18:10:46.247Z,19.03
2022-12-18T18:13:46.422Z,20.73
2022-12-18T18:16:22.949Z,19.27
2022-12-18T18:18:58.161Z,20.63
2022-12-18T18:21:32.630Z,20.63
2022-12-18T18:24:09.907Z,19.63
2022-12-18T18:26:45.885Z,20.13
2022-12-18T18:29:26.686Z,21.63
2022-12-18T18:32:00.537Z,19.53
2022-12-18T18:34:33.754Z,19.00
2022-12-18T18:37:09.042Z,20.10
2022-12-18T18:39:42.380Z,19.37
2022-12-18T18:42:15.621Z,19.93
2022-12-18T18:44:53.639Z,20.17
2022-12-18T18:47:29.600Z,19.57
2022-12-18T18:50:02.693Z,21.03
2022-12-18T18:52:35.606Z,20.97
2022-12-18T18:55:13.661Z,19.03
2022-12-18T18:58:00.498Z,21.57
2022-12-18T19:00:36.293Z,23.07
2022-12-18T19:03:10.767Z,21.77
2022-12-18T19:05:47.535Z,21.47
2022-12-18T19:08:20.468Z,20.37
2022-12-18T19:10:57.670Z,22.10
2022-12-18T19:13:30.938Z,21.67
2022-12-18T19:16:08.553Z,20.07
2022-12-18T19:18:42.988Z,21.10
2022-12-18T19:21:16.220Z,20.50
2022-12-18T19:23:49.022Z,21.37
2022-12-18T19:26:27.946Z,21.97
2022-12-18T19:29:02.093Z,21.90
2022-12-18T19:31:39.681Z,22.43
2022-12-18T19:34:15.745Z,20.33
2022-12-18T19:36:48.971Z,23.57
2022-12-18T19:39:22.003Z,21.20
2022-12-18T19:41:55.868Z,21.03
2022-12-18T19:44:30.205Z,22.43
2022-12-18T19:47:07.210Z,20.40
2022-12-18T19:49:40.044Z,20.87
2022-12-18T19:52:17.673Z,21.00
2022-12-18T19:54:50.580Z,20.67
2022-12-18T19:57:23.410Z,20.93
2022-12-18T19:59:56.278Z,20.67
2022-12-18T20:02:31.111Z,21.33
2022-12-18T20:05:11.018Z,21.43
2022-12-18T20:07:43.795Z,19.63
2022-12-18T20:10:17.413Z,19.87
2022-12-18T20:12:51.823Z,20.93
2022-12-18T20:15:26.443Z,20.70
2022-12-18T20:18:00.655Z,21.87
2022-12-18T20:20:33.982Z,21.13
2022-12-18T20:23:07.078Z,20.93
2022-12-18T20:25:39.924Z,20.73
2022-12-18T20:28:12.984Z,18.73
2022-12-18T20:30:46.003Z,18.80
2022-12-18T20:33:20.489Z,19.53
2022-12-18T20:35:53.669Z,18.47
2022-12-18T20:38:27.023Z,21.07
2022-12-18T20:41:02.316Z,22.23
2022-12-18T20:43:35.167Z,19.77
2022-12-18T20:46:09.494Z,19.80
2022-12-18T20:48:43.795Z,19.40
2022-12-18T20:51:17.907Z,21.07
2022-12-18T20:53:50.647Z,18.77
2022-12-18T20:56:23.938Z,19.43
2022-12-18T20:58:57.660Z,18.80
2022-12-18T21:01:30.886Z,17.63
2022-12-18T21:04:05.357Z,20.00
2022-12-18T21:06:38.104Z,20.53
2022-12-18T21:09:11.078Z,23.37
2022-12-18T21:12:01.224Z,20.47
2022-12-18T21:14:34.220Z,20.83
2022-12-18T21:17:07.265Z,18.50
2022-12-18T21:20:03.272Z,20.23
2022-12-18T21:22:41.351Z,19.63
2022-12-18T21:25:17.402Z,19.13
2022-12-18T21:27:50.599Z,18.10
2022-12-18T21:30:24.612Z,18.73
2022-12-18T21:32:58.959Z,18.03
2022-12-18T21:35:32.099Z,18.50
2022-12-18T21:38:06.383Z,19.17
2022-12-18T21:40:40.057Z,19.33
2022-12-18T21:43:30.503Z,18.93
2022-12-18T21:46:05.873Z,20.00
2022-12-18T21:48:46.218Z,19.87
2022-12-18T21:51:19.196Z,18.03
2022-12-18T21:53:53.387Z,20.10
2022-12-18T21:56:27.051Z,17.60
2022-12-18T21:58:59.887Z,19.20
2022-12-18T22:01:37.324Z,19.13
2022-12-18T22:04:13.105Z,19.13
2022-12-18T22:06:46.586Z,17.57
2022-12-18T22:09:21.808Z,18.70
2022-12-18T22:11:54.657Z,18.37
2022-12-18T22:14:27.904Z,19.70
2022-12-18T22:17:01.141Z,17.53
2022-12-18T22:19:38.128Z,17.73
2022-12-18T22:22:24.344Z,17.30
2022-12-18T22:24:58.529Z,16.93
2022-12-18T22:27:31.484Z,16.63
2022-12-18T22:30:06.012Z,17.00
2022-12-18T22:32:38.965Z,17.83
2022-12-18T22:35:15.853Z,17.23
2022-12-18T22:37:48.818Z,18.27
2022-12-18T22:40:26.741Z,18.27
2022-12-18T22:42:59.767Z,17.30
2022-12-18T22:45:32.664Z,17.23
2022-12-18T22:48:08.415Z,16.93
2022-12-18T22:50:41.361Z,16.80
2022-12-18T22:53:14.098Z,17.47
2022-12-18T22:55:48.289Z,16.23
2022-12-18T22:58:21.101Z,16.17
2022-12-18T23:00:53.819Z,16.33
2022-12-18T23:03:26.656Z,15.37
2022-12-18T23:06:03.848Z,16.30
2022-12-18T23:08:36.923Z,17.20
2022-12-18T23:11:12.056Z,16.93
2022-12-18T23:13:45.093Z,15.47
2022-12-18T23:16:19.245Z,16.17
2022-12-18T23:18:54.491Z,16.17
2022-12-18T23:21:29.853Z,16.00
2022-12-18T23:24:03.909Z,16.10
2022-12-18T23:26:38.068Z,15.93
2022-12-18T23:29:13.981Z,16.40
2022-12-18T23:31:47.166Z,16.23
2022-12-18T23:34:20.226Z,15.90
2022-12-18T23:36:56.021Z,15.93
2022-12-18T23:39:30.382Z,14.20
2022-12-18T23:42:05.032Z,15.27
2022-12-18T23:44:37.820Z,15.53
2022-12-18T23:47:10.702Z,15.20
2022-12-18T23:49:43.644Z,15.07
2022-12-18T23:52:17.010Z,15.90
2022-12-18T23:54:49.868Z,15.10
2022-12-18T23:57:24.009Z,14.37
2022-12-18T23:59:59.846Z,15.50
